Time;durP1;ratioP1;P1;durP2;ratioP2;P2;SDS_P1;SDS_P2;PMS_P1;PMS_P2;Temp;Humidity;BMP_temperature;BMP_pressure;BME280_temperature;BME280_humidity;BME280_pressure;Samples;Min_cycle;Max_cycle;Signal;HPM_P1;HPM_P2
2022/02/20 00:00:29;;;;;;;;;;;;;;;;;;4997986;28;19921;-53
2022/02/20 00:02:55;;;;;;;;;;;;;;;;;;4996959;28;19914;-55
2022/02/20 00:05:20;;;;;;;;;;;;;;;;;;4995828;28;20297;-52
2022/02/20 00:07:45;;;;;;;;;;;;;;;;;;5011473;28;20008;-49
2022/02/20 00:10:10;;;;;;;;;;;;;;;;;;4994885;28;20001;-52
2022/02/20 00:12:36;;;;;;;;;;;;;;;;;;4996055;28;19922;-50
2022/02/20 00:15:01;;;;;;;;;;;;;;;;;;4997280;28;19921;-52
2022/02/20 00:17:26;;;;;;;;;;;;;;;;;;5012352;28;19977;-52
2022/02/20 00:19:51;;;;;;;;;;;;;;;;;;4994717;28;19920;-51
2022/02/20 00:22:16;;;;;;;;;;;;;;;;;;4998108;28;19917;-53
2022/02/20 00:24:42;;;;;;;;;;;;;;;;;;4999102;28;20016;-53
2022/02/20 00:27:07;;;;;;;;;;;;;;;;;;4997678;28;19913;-53
2022/02/20 00:29:32;;;;;;;;;;;;;;;;;;5010117;28;19941;-47
2022/02/20 00:31:57;;;;;;;;;;;;;;;;;;4996036;28;20362;-54
2022/02/20 00:34:22;;;;;;;;;;;;;;;;;;4999757;28;20025;-49
2022/02/20 00:36:47;;;;;;;;;;;;;;;;;;4992494;28;19968;-51
2022/02/20 00:39:13;;;;;;;;;;;;;;;;;;4994942;28;19953;-49
2022/02/20 00:41:38;;;;;;;;;;;;;;;;;;4996116;28;19924;-51
2022/02/20 00:44:03;;;;;;;;;;;;;;;;;;4998467;28;19941;-52
2022/02/20 00:46:28;;;;;;;;;;;;;;;;;;4994909;28;20290;-53
2022/02/20 00:48:53;;;;;;;;;;;;;;;;;;5013900;28;19921;-53
2022/02/20 00:51:18;;;;;;;;;;;;;;;;;;4996595;28;20288;-52
2022/02/20 00:53:44;;;;;;;;;;;;;;;;;;4999315;28;20384;-51
2022/02/20 00:56:09;;;;;;;;;;;;;;;;;;4995814;28;20000;-52
2022/02/20 00:58:34;;;;;;;;;;;;;;;;;;4999488;28;19953;-52
2022/02/20 01:00:59;;;;;;;;;;;;;;;;;;5012347;28;19925;-52
2022/02/20 01:03:24;;;;;;;;;;;;;;;;;;4995313;28;19995;-52
2022/02/20 01:05:51;;;;;;;;;;;;;;;;;;4996768;28;19921;-50
2022/02/20 01:08:16;;;;;;;;;;;;;;;;;;4997266;28;20372;-50
2022/02/20 01:10:42;;;;;;;;;;;;;;;;;;4995537;28;19935;-54
2022/02/20 01:13:07;;;;;;;;;;;;;;;;;;4994854;28;19921;-51
2022/02/20 01:15:32;;;;;;;;;;;;;;;;;;4999743;28;19936;-51
2022/02/20 01:17:57;;;;;;;;;;;;;;;;;;4994926;28;20617;-53
2022/02/20 01:20:22;;;;;;;;;;;;;;;;;;4996681;28;19937;-51
2022/02/20 01:22:47;;;;;;;;;;;;;;;;;;4997820;28;20036;-52
2022/02/20 01:25:13;;;;;;;;;;;;;;;;;;4997238;28;19913;-52
2022/02/20 01:27:39;;;;;;;;;;;;;;;;;;4996091;28;20001;-53
2022/02/20 01:30:04;;;;;;;;;;;;;;;;;;4995653;28;20361;-49
2022/02/20 01:32:29;;;;;;;;;;;;;;;;;;4994069;28;19971;-53
2022/02/20 01:34:54;;;;;;;;;;;;;;;;;;4996978;28;19917;-52
2022/02/20 01:37:19;;;;;;;;;;;;;;;;;;4996962;28;19913;-51
2022/02/20 01:39:45;;;;;;;;;;;;;;;;;;4991820;28;20278;-52
2022/02/20 01:42:10;;;;;;;;;;;;;;;;;;4999095;28;19960;-51
2022/02/20 01:44:35;;;;;;;;;;;;;;;;;;4994405;28;19917;-51
2022/02/20 01:47:01;;;;;;;;;;;;;;;;;;5010372;28;20028;-51
2022/02/20 01:49:26;;;;;;;;;;;;;;;;;;5008635;28;19925;-54
2022/02/20 01:51:51;;;;;;;;;;;;;;;;;;4994402;28;20104;-55
2022/02/20 01:54:16;;;;;;;;;;;;;;;;;;4994186;28;19918;-52
2022/02/20 01:56:41;;;;;;;;;;;;;;;;;;4995452;28;20452;-54
2022/02/20 01:59:07;;;;;;;;;;;;;;;;;;4995232;28;19921;-53
2022/02/20 02:01:32;;;;;;;;;;;;;;;;;;4992294;28;20778;-54
2022/02/20 02:03:57;;;;;;;;;;;;;;;;;;4997213;28;19914;-51
2022/02/20 02:06:22;;;;;;;;;;;;;;;;;;4994880;28;20520;-51
2022/02/20 02:08:47;;;;;;;;;;;;;;;;;;4994651;28;20389;-50
2022/02/20 02:11:13;;;;;;;;;;;;;;;;;;4996194;28;19917;-51
2022/02/20 02:13:38;;;;;;;;;;;;;;;;;;5010256;28;19963;-49
2022/02/20 02:16:03;;;;;;;;;;;;;;;;;;4994849;28;20389;-52
2022/02/20 02:18:28;;;;;;;;;;;;;;;;;;4994968;28;19914;-48
2022/02/20 02:20:53;;;;;;;;;;;;;;;;;;4994118;28;20464;-51
2022/02/20 02:23:19;;;;;;;;;;;;;;;;;;4996142;28;19917;-52
2022/02/20 02:25:45;;;;;;;;;;;;;;;;;;4998860;28;19917;-52
2022/02/20 02:28:10;;;;;;;;;;;;;;;;;;4990977;28;19924;-51
2022/02/20 02:30:35;;;;;;;;;;;;;;;;;;4994232;28;19977;-53
2022/02/20 02:33:00;;;;;;;;;;;;;;;;;;5011606;28;19914;-51
2022/02/20 02:35:26;;;;;;;;;;;;;;;;;;4997142;28;20009;-53
2022/02/20 02:37:53;;;;;;;;;;;;;;;;;;4996602;28;20357;-50
2022/02/20 02:40:18;;;;;;;;;;;;;;;;;;4996691;28;19913;-54
2022/02/20 02:42:43;;;;;;;;;;;;;;;;;;4996501;28;20004;-52
2022/02/20 02:45:08;;;;;;;;;;;;;;;;;;4997782;28;19933;-53
2022/02/20 02:47:34;;;;;;;;;;;;;;;;;;4996552;28;20296;-52
2022/02/20 02:49:59;;;;;;;;;;;;;;;;;;4998392;28;19921;-51
2022/02/20 02:52:24;;;;;;;;;;;;;;;;;;5012633;28;19930;-54
2022/02/20 02:54:49;;;;;;;;;;;;;;;;;;5010094;28;19957;-48
2022/02/20 02:57:14;;;;;;;;;;;;;;;;;;5001220;28;19920;-47
2022/02/20 02:59:39;;;;;;;;;;;;;;;;;;4997207;28;19960;-54
2022/02/20 03:02:07;;;;;;;;;;;;;;;;;;5002102;28;19918;-50
2022/02/20 03:04:32;;;;;;;;;;;;;;;;;;5014091;28;20434;-50
2022/02/20 03:06:57;;;;;;;;;;;;;;;;;;5001315;28;19918;-53
2022/02/20 03:09:22;;;;;;;;;;;;;;;;;;5013332;28;19909;-49
2022/02/20 03:11:48;;;;;;;;;;;;;;;;;;4995750;28;20477;-51
2022/02/20 03:14:13;;;;;;;;;;;;;;;;;;4994523;28;19972;-53
2022/02/20 03:16:38;;;;;;;;;;;;;;;;;;4995257;28;19909;-51
2022/02/20 03:19:03;;;;;;;;;;;;;;;;;;4992435;28;19953;-53
2022/02/20 03:21:28;;;;;;;;;;;;;;;;;;4999194;28;19945;-52
2022/02/20 03:23:54;;;;;;;;;;;;;;;;;;4993645;28;19924;-53
2022/02/20 03:26:19;;;;;;;;;;;;;;;;;;4995796;28;19917;-51
2022/02/20 03:28:44;;;;;;;;;;;;;;;;;;4996188;28;19921;-53
2022/02/20 03:31:12;;;;;;;;;;;;;;;;;;4997301;28;20373;-54
2022/02/20 03:33:38;;;;;;;;;;;;;;;;;;4996635;28;19917;-50
2022/02/20 03:36:03;;;;;;;;;;;;;;;;;;5000998;28;19914;-54
2022/02/20 03:38:28;;;;;;;;;;;;;;;;;;5003484;28;19913;-53
2022/02/20 03:40:53;;;;;;;;;;;;;;;;;;5000447;28;19918;-49
2022/02/20 03:43:18;;;;;;;;;;;;;;;;;;4998898;28;20002;-53
2022/02/20 03:45:44;;;;;;;;;;;;;;;;;;4999914;28;20424;-54
2022/02/20 03:48:09;;;;;;;;;;;;;;;;;;5015690;28;20331;-53
2022/02/20 03:50:34;;;;;;;;;;;;;;;;;;4999187;28;19925;-53
2022/02/20 03:52:59;;;;;;;;;;;;;;;;;;5013327;28;19928;-50
2022/02/20 03:55:24;;;;;;;;;;;;;;;;;;4999447;28;19921;-52
2022/02/20 03:57:50;;;;;;;;;;;;;;;;;;5013098;28;19909;-52
2022/02/20 04:00:15;;;;;;;;;;;;;;;;;;5011879;28;19918;-49
2022/02/20 04:02:40;;;;;;;;;;;;;;;;;;5000453;28;20460;-50
2022/02/20 04:05:05;;;;;;;;;;;;;;;;;;4997239;28;20379;-50
2022/02/20 04:07:31;;;;;;;;;;;;;;;;;;5012245;28;19960;-49
2022/02/20 04:09:56;;;;;;;;;;;;;;;;;;4998509;28;19910;-50
2022/02/20 04:12:21;;;;;;;;;;;;;;;;;;4995986;28;19945;-52
2022/02/20 04:14:46;;;;;;;;;;;;;;;;;;4997906;28;19936;-53
2022/02/20 04:17:11;;;;;;;;;;;;;;;;;;5001114;28;19910;-52
2022/02/20 04:19:36;;;;;;;;;;;;;;;;;;5000131;28;20580;-50
2022/02/20 04:22:02;;;;;;;;;;;;;;;;;;4999915;28;19925;-53
2022/02/20 04:24:27;;;;;;;;;;;;;;;;;;5000678;28;19957;-51
2022/02/20 04:26:52;;;;;;;;;;;;;;;;;;4999091;28;19913;-52
2022/02/20 04:29:17;;;;;;;;;;;;;;;;;;4997145;28;20237;-51
2022/02/20 04:31:43;;;;;;;;;;;;;;;;;;4998021;28;19914;-51
2022/02/20 04:34:08;;;;;;;;;;;;;;;;;;5001785;28;20634;-51
2022/02/20 04:36:36;;;;;;;;;;;;;;;;;;4998164;28;20656;-52
2022/02/20 04:39:01;;;;;;;;;;;;;;;;;;4993955;28;19913;-52
2022/02/20 04:41:27;;;;;;;;;;;;;;;;;;4998434;28;20274;-50
2022/02/20 04:43:52;;;;;;;;;;;;;;;;;;4996588;28;19910;-53
2022/02/20 04:46:17;;;;;;;;;;;;;;;;;;5010122;28;19914;-51
2022/02/20 04:48:43;;;;;;;;;;;;;;;;;;4996266;28;19972;-51
2022/02/20 04:51:08;;;;;;;;;;;;;;;;;;5014096;28;19922;-53
2022/02/20 04:53:33;;;;;;;;;;;;;;;;;;4999516;28;19918;-53
2022/02/20 04:55:59;;;;;;;;;;;;;;;;;;4996918;28;19914;-51
2022/02/20 04:58:25;;;;;;;;;;;;;;;;;;5012946;28;19917;-52
2022/02/20 05:00:50;;;;;;;;;;;;;;;;;;4995103;28;19925;-51
2022/02/20 05:03:15;;;;;;;;;;;;;;;;;;5000855;28;19956;-49
2022/02/20 05:05:40;;;;;;;;;;;;;;;;;;4995188;28;20012;-48
2022/02/20 05:08:09;;;;;;;;;;;;;;;;;;5003861;28;19910;-53
2022/02/20 05:10:34;;;;;;;;;;;;;;;;;;4998216;28;19914;-52
2022/02/20 05:12:59;;;;;;;;;;;;;;;;;;4997441;28;19921;-52
2022/02/20 05:15:24;;;;;;;;;;;;;;;;;;4994934;28;19929;-55
2022/02/20 05:17:49;;;;;;;;;;;;;;;;;;5000056;28;19918;-54
2022/02/20 05:20:15;;;;;;;;;;;;;;;;;;4997970;28;19926;-53
2022/02/20 05:22:40;;;;;;;;;;;;;;;;;;4995451;28;20353;-50
2022/02/20 05:25:05;;;;;;;;;;;;;;;;;;4996156;28;20557;-50
2022/02/20 05:27:30;;;;;;;;;;;;;;;;;;4998015;28;19925;-52
2022/02/20 05:29:55;;;;;;;;;;;;;;;;;;5011214;28;20465;-52
2022/02/20 05:32:23;;;;;;;;;;;;;;;;;;4995549;28;19917;-56
2022/02/20 05:34:48;;;;;;;;;;;;;;;;;;4997069;28;19940;-53
2022/02/20 05:37:13;;;;;;;;;;;;;;;;;;4995758;28;20616;-52
2022/02/20 05:39:39;;;;;;;;;;;;;;;;;;5010794;28;19917;-52
2022/02/20 05:42:04;;;;;;;;;;;;;;;;;;4997051;28;19946;-53
2022/02/20 05:44:29;;;;;;;;;;;;;;;;;;4995452;28;20053;-53
2022/02/20 05:46:54;;;;;;;;;;;;;;;;;;4995817;28;19921;-51
2022/02/20 05:49:19;;;;;;;;;;;;;;;;;;4999351;28;19932;-53
2022/02/20 05:51:45;;;;;;;;;;;;;;;;;;4995967;28;20634;-54
2022/02/20 05:54:10;;;;;;;;;;;;;;;;;;4995721;28;20401;-52
2022/02/20 05:56:35;;;;;;;;;;;;;;;;;;4999426;28;20395;-51
2022/02/20 05:59:00;;;;;;;;;;;;;;;;;;4996528;28;19913;-52
2022/02/20 06:01:25;;;;;;;;;;;;;;;;;;4997652;28;20553;-50
2022/02/20 06:03:51;;;;;;;;;;;;;;;;;;4999781;28;20392;-51
2022/02/20 06:06:16;;;;;;;;;;;;;;;;;;4997312;28;19944;-51
2022/02/20 06:08:42;;;;;;;;;;;;;;;;;;4995535;28;19914;-50
2022/02/20 06:11:07;;;;;;;;;;;;;;;;;;4998637;28;20009;-52
2022/02/20 06:13:32;;;;;;;;;;;;;;;;;;5011636;28;20001;-50
2022/02/20 06:15:57;;;;;;;;;;;;;;;;;;4997650;28;20366;-50
2022/02/20 06:18:22;;;;;;;;;;;;;;;;;;4995830;28;19964;-51
2022/02/20 06:20:47;;;;;;;;;;;;;;;;;;4994496;28;20297;-50
2022/02/20 06:23:13;;;;;;;;;;;;;;;;;;4995654;28;19941;-49
2022/02/20 06:25:38;;;;;;;;;;;;;;;;;;4997413;28;20004;-51
2022/02/20 06:28:03;;;;;;;;;;;;;;;;;;4998667;28;19959;-53
2022/02/20 06:30:28;;;;;;;;;;;;;;;;;;4996374;28;20081;-53
2022/02/20 06:32:53;;;;;;;;;;;;;;;;;;4999861;28;19964;-51
2022/02/20 06:35:19;;;;;;;;;;;;;;;;;;4996690;28;19925;-53
2022/02/20 06:37:44;;;;;;;;;;;;;;;;;;4995440;28;20828;-54
2022/02/20 06:40:09;;;;;;;;;;;;;;;;;;4994841;28;19909;-53
2022/02/20 06:42:34;;;;;;;;;;;;;;;;;;4993926;28;19921;-54
2022/02/20 06:44:59;;;;;;;;;;;;;;;;;;4992473;28;19913;-53
2022/02/20 06:47:25;;;;;;;;;;;;;;;;;;4997405;28;20378;-52
2022/02/20 06:49:50;;;;;;;;;;;;;;;;;;4995458;28;19926;-54
2022/02/20 06:52:16;;;;;;;;;;;;;;;;;;4996849;28;19916;-54
2022/02/20 06:54:41;;;;;;;;;;;;;;;;;;5012631;28;19918;-51
2022/02/20 06:57:06;;;;;;;;;;;;;;;;;;4996600;28;19972;-53
2022/02/20 06:59:31;;;;;;;;;;;;;;;;;;4998330;28;19920;-54
2022/02/20 07:01:56;;;;;;;;;;;;;;;;;;4998948;28;19913;-52
2022/02/20 07:04:21;;;;;;;;;;;;;;;;;;4995730;28;19921;-54
2022/02/20 07:06:47;;;;;;;;;;;;;;;;;;4996085;28;19964;-52
2022/02/20 07:09:12;;;;;;;;;;;;;;;;;;4995829;28;20355;-53
2022/02/20 07:11:37;;;;;;;;;;;;;;;;;;5010011;28;20289;-52
2022/02/20 07:14:03;;;;;;;;;;;;;;;;;;4997488;28;19960;-50
2022/02/20 07:16:28;;;;;;;;;;;;;;;;;;5002933;28;19943;-53
2022/02/20 07:18:53;;;;;;;;;;;;;;;;;;5000526;28;20484;-54
2022/02/20 07:21:19;;;;;;;;;;;;;;;;;;5015618;28;20296;-54
2022/02/20 07:23:44;;;;;;;;;;;;;;;;;;5017215;28;19918;-54
2022/02/20 07:26:09;;;;;;;;;;;;;;;;;;4998963;28;19910;-53
2022/02/20 07:28:34;;;;;;;;;;;;;;;;;;4998547;28;19921;-52
2022/02/20 07:30:59;;;;;;;;;;;;;;;;;;4997801;28;19961;-53
2022/02/20 07:33:24;;;;;;;;;;;;;;;;;;5000305;28;20512;-55
2022/02/20 07:35:50;;;;;;;;;;;;;;;;;;4998407;28;20475;-55
2022/02/20 07:38:15;;;;;;;;;;;;;;;;;;5002283;28;19909;-52
2022/02/20 07:40:40;;;;;;;;;;;;;;;;;;4999198;28;19914;-55
2022/02/20 07:43:05;;;;;;;;;;;;;;;;;;4998683;28;19941;-51
2022/02/20 07:45:30;;;;;;;;;;;;;;;;;;4999912;28;19913;-54
2022/02/20 07:47:56;;;;;;;;;;;;;;;;;;4997139;28;20017;-44
2022/02/20 07:50:21;;;;;;;;;;;;;;;;;;4996483;28;19926;-44
2022/02/20 07:52:47;;;;;;;;;;;;;;;;;;4995857;28;20321;-44
2022/02/20 07:55:12;;;;;;;;;;;;;;;;;;4999581;28;20378;-47
2022/02/20 07:57:37;;;;;;;;;;;;;;;;;;4998303;28;19918;-46
2022/02/20 08:00:03;;;;;;;;;;;;;;;;;;4995369;28;20487;-44
2022/02/20 08:02:28;;;;;;;;;;;;;;;;;;4996983;28;19945;-44
2022/02/20 08:04:53;;;;;;;;;;;;;;;;;;4995558;28;19920;-48
2022/02/20 08:07:18;;;;;;;;;;;;;;;;;;4995388;28;20520;-47
2022/02/20 08:09:43;;;;;;;;;;;;;;;;;;4993766;28;19914;-48
2022/02/20 08:12:09;;;;;;;;;;;;;;;;;;4993743;28;19937;-47
2022/02/20 08:14:34;;;;;;;;;;;;;;;;;;4997503;28;19929;-44
2022/02/20 08:16:59;;;;;;;;;;;;;;;;;;4997477;28;20377;-46
2022/02/20 08:19:24;;;;;;;;;;;;;;;;;;4997627;28;19924;-43
2022/02/20 08:21:49;;;;;;;;;;;;;;;;;;4993565;28;19914;-44
2022/02/20 08:24:15;;;;;;;;;;;;;;;;;;5009682;28;20530;-45
2022/02/20 08:26:40;;;;;;;;;;;;;;;;;;4995602;28;19914;-44
2022/02/20 08:29:05;;;;;;;;;;;;;;;;;;4995896;28;19913;-45
2022/02/20 08:31:30;;;;;;;;;;;;;;;;;;4997022;28;19914;-45
2022/02/20 08:33:56;;;;;;;;;;;;;;;;;;4993800;28;19921;-44
2022/02/20 08:36:21;;;;;;;;;;;;;;;;;;4991718;28;19917;-42
2022/02/20 08:38:46;;;;;;;;;;;;;;;;;;4990881;28;19914;-42
2022/02/20 08:41:11;;;;;;;;;;;;;;;;;;4995875;28;19994;-45
2022/02/20 08:43:36;;;;;;;;;;;;;;;;;;4993909;28;19914;-43
2022/02/20 08:46:01;;;;;;;;;;;;;;;;;;4997005;28;19961;-47
2022/02/20 08:48:30;;;;;;;;;;;;;;;;;;4997356;28;20005;-44
2022/02/20 08:50:55;;;;;;;;;;;;;;;;;;4996433;28;19969;-47
2022/02/20 08:53:20;;;;;;;;;;;;;;;;;;4991975;28;20546;-48
2022/02/20 08:55:45;;;;;;;;;;;;;;;;;;4999415;28;19921;-46
2022/02/20 08:58:11;;;;;;;;;;;;;;;;;;4995283;28;19921;-49
2022/02/20 09:00:38;;;;;;;;;;;;;;;;;;4995034;28;19913;-44
2022/02/20 09:03:03;;;;;;;;;;;;;;;;;;4996756;28;20009;-45
2022/02/20 09:05:28;;;;;;;;;;;;;;;;;;4998154;28;20058;-42
2022/02/20 09:07:53;;;;;;;;;;;;;;;;;;4996795;28;20357;-48
2022/02/20 09:10:18;;;;;;;;;;;;;;;;;;4993913;28;19949;-53
2022/02/20 09:12:45;;;;;;;;;;;;;;;;;;4994021;28;20006;-47
2022/02/20 09:15:11;;;;;;;;;;;;;;;;;;4994274;28;19972;-42
2022/02/20 09:17:36;;;;;;;;;;;;;;;;;;4994832;28;20003;-46
2022/02/20 09:20:01;;;;;;;;;;;;;;;;;;4993438;28;19909;-43
2022/02/20 09:22:26;;;;;;;;;;;;;;;;;;4996338;28;19991;-46
2022/02/20 09:24:51;;;;;;;;;;;;;;;;;;4993503;28;20447;-45
2022/02/20 09:27:17;;;;;;;;;;;;;;;;;;4993527;28;19920;-47
2022/02/20 09:29:42;;;;;;;;;;;;;;;;;;4994297;28;19932;-43
2022/02/20 09:32:07;;;;;;;;;;;;;;;;;;4993651;28;20435;-43
2022/02/20 09:34:32;;;;;;;;;;;;;;;;;;4995383;28;19925;-43
2022/02/20 09:36:57;;;;;;;;;;;;;;;;;;4992441;28;20439;-45
2022/02/20 09:39:22;;;;;;;;;;;;;;;;;;4991673;28;19952;-45
2022/02/20 09:41:48;;;;;;;;;;;;;;;;;;4999185;28;19913;-45
2022/02/20 09:44:13;;;;;;;;;;;;;;;;;;4995370;28;20313;-48
2022/02/20 09:46:38;;;;;;;;;;;;;;;;;;4993031;28;19925;-47
2022/02/20 09:49:03;;;;;;;;;;;;;;;;;;4995754;28;20397;-47
2022/02/20 09:51:30;;;;;;;;;;;;;;;;;;4993037;28;20266;-46
2022/02/20 09:53:56;;;;;;;;;;;;;;;;;;4998117;28;20303;-45
2022/02/20 09:56:22;;;;;;;;;;;;;;;;;;4994768;28;20424;-46
2022/02/20 09:58:47;;;;;;;;;;;;;;;;;;4993671;28;19914;-46
2022/02/20 10:01:13;;;;;;;;;;;;;;;;;;4993819;28;19959;-48
2022/02/20 10:03:38;;;;;;;;;;;;;;;;;;4993393;28;20471;-49
2022/02/20 10:06:03;;;;;;;;;;;;;;;;;;4993990;28;19914;-46
2022/02/20 10:08:28;;;;;;;;;;;;;;;;;;4994378;28;19910;-47
2022/02/20 10:10:53;;;;;;;;;;;;;;;;;;4992186;28;20384;-43
2022/02/20 10:13:18;;;;;;;;;;;;;;;;;;4995740;28;20012;-47
2022/02/20 10:15:44;;;;;;;;;;;;;;;;;;4994078;28;19933;-46
2022/02/20 10:18:10;;;;;;;;;;;;;;;;;;4991845;28;20353;-47
2022/02/20 10:20:35;;;;;;;;;;;;;;;;;;4993084;28;19922;-48
2022/02/20 10:23:00;;;;;;;;;;;;;;;;;;4992268;28;20552;-49
2022/02/20 10:25:25;;;;;;;;;;;;;;;;;;4992704;28;19992;-46
2022/02/20 10:27:50;;;;;;;;;;;;;;;;;;4994227;28;19914;-48
2022/02/20 10:30:15;;;;;;;;;;;;;;;;;;4991566;28;20396;-43
2022/02/20 10:32:41;;;;;;;;;;;;;;;;;;4994760;28;19917;-51
2022/02/20 10:35:06;;;;;;;;;;;;;;;;;;4996538;28;19976;-46
2022/02/20 10:37:32;;;;;;;;;;;;;;;;;;4993892;28;20146;-47
2022/02/20 10:39:57;;;;;;;;;;;;;;;;;;4994337;28;19952;-48
2022/02/20 10:42:24;;;;;;;;;;;;;;;;;;4995673;28;20810;-47
2022/02/20 10:44:49;;;;;;;;;;;;;;;;;;4991656;28;19918;-45
2022/02/20 10:47:14;;;;;;;;;;;;;;;;;;4998374;28;19917;-46
2022/02/20 10:49:40;;;;;;;;;;;;;;;;;;4994666;28;19925;-43
2022/02/20 10:52:05;;;;;;;;;;;;;;;;;;4997607;28;19922;-46
2022/02/20 10:54:30;;;;;;;;;;;;;;;;;;4995656;28;19917;-46
2022/02/20 10:56:55;;;;;;;;;;;;;;;;;;4994512;28;19914;-44
2022/02/20 10:59:21;;;;;;;;;;;;;;;;;;4990396;28;20342;-47
2022/02/20 11:01:47;;;;;;;;;;;;;;;;;;4996866;28;19917;-46
2022/02/20 11:04:14;;;;;;;;;;;;;;;;;;4995630;28;19913;-45
2022/02/20 11:06:39;;;;;;;;;;;;;;;;;;4995556;28;19970;-49
2022/02/20 11:09:04;;;;;;;;;;;;;;;;;;4994392;28;20612;-47
2022/02/20 11:11:42;;;;;;;;;;;;;;;;;;4996051;28;19913;-45
2022/02/20 11:14:07;;;;;;;;;;;;;;;;;;4996020;28;20008;-49
2022/02/20 11:16:33;;;;;;;;;;;;;;;;;;4997169;28;19913;-45
2022/02/20 11:18:58;;;;;;;;;;;;;;;;;;4996040;28;20627;-51
2022/02/20 11:21:23;;;;;;;;;;;;;;;;;;4995076;28;19917;-47
2022/02/20 11:23:48;;;;;;;;;;;;;;;;;;4995953;28;19913;-48
2022/02/20 11:26:13;;;;;;;;;;;;;;;;;;4996427;28;20328;-44
2022/02/20 11:28:38;;;;;;;;;;;;;;;;;;4994508;28;20033;-49
2022/02/20 11:31:03;;;;;;;;;;;;;;;;;;4996902;28;20424;-49
2022/02/20 11:33:29;;;;;;;;;;;;;;;;;;4995914;28;19917;-47
2022/02/20 11:35:54;;;;;;;;;;;;;;;;;;4996411;28;20429;-47
2022/02/20 11:38:19;;;;;;;;;;;;;;;;;;4994263;28;20340;-46
2022/02/20 11:40:44;;;;;;;;;;;;;;;;;;4995000;28;19928;-50
2022/02/20 11:43:10;;;;;;;;;;;;;;;;;;4996503;28;20378;-48
2022/02/20 11:45:37;;;;;;;;;;;;;;;;;;4995917;28;19917;-50
2022/02/20 11:48:02;;;;;;;;;;;;;;;;;;4994274;28;19965;-53
2022/02/20 11:50:27;;;;;;;;;;;;;;;;;;4995102;28;19925;-50
2022/02/20 11:52:52;;;;;;;;;;;;;;;;;;4996204;28;19972;-52
2022/02/20 11:55:20;;;;;;;;;;;;;;;;;;4995824;28;19981;-48
2022/02/20 11:57:45;;;;;;;;;;;;;;;;;;4997084;28;19920;-47
2022/02/20 12:00:13;;;;;;;;;;;;;;;;;;4995375;28;20540;-48
2022/02/20 12:02:38;;;;;;;;;;;;;;;;;;4997876;28;19999;-48
2022/02/20 12:05:06;;;;;;;;;;;;;;;;;;4998295;28;19918;-50
2022/02/20 12:07:31;;;;;;;;;;;;;;;;;;4997428;28;20137;-51
2022/02/20 12:09:56;;;;;;;;;;;;;;;;;;4994033;28;20377;-47
2022/02/20 12:12:21;;;;;;;;;;;;;;;;;;4994869;28;20084;-48
2022/02/20 12:14:47;;;;;;;;;;;;;;;;;;5000777;28;20017;-51
2022/02/20 12:17:13;;;;;;;;;;;;;;;;;;4999325;28;20451;-54
2022/02/20 12:19:39;;;;;;;;;;;;;;;;;;4999147;28;20031;-50
2022/02/20 12:22:05;;;;;;;;;;;;;;;;;;4995836;28;20377;-49
2022/02/20 12:24:30;;;;;;;;;;;;;;;;;;4995351;28;19914;-51
2022/02/20 12:26:55;;;;;;;;;;;;;;;;;;4996972;28;19953;-47
2022/02/20 12:29:22;;;;;;;;;;;;;;;;;;4996307;28;19996;-51
2022/02/20 12:31:47;;;;;;;;;;;;;;;;;;5001607;28;19920;-52
2022/02/20 12:34:12;;;;;;;;;;;;;;;;;;4994822;28;20746;-52
2022/02/20 12:36:37;;;;;;;;;;;;;;;;;;4999394;28;19922;-52
2022/02/20 12:39:02;;;;;;;;;;;;;;;;;;4997342;28;19936;-51
2022/02/20 12:41:28;;;;;;;;;;;;;;;;;;4996730;28;20270;-47
2022/02/20 12:43:53;;;;;;;;;;;;;;;;;;4997086;28;19918;-51
2022/02/20 12:46:18;;;;;;;;;;;;;;;;;;4996911;28;19917;-52
2022/02/20 12:48:43;;;;;;;;;;;;;;;;;;4993807;28;19964;-52
2022/02/20 12:51:10;;;;;;;;;;;;;;;;;;4997936;28;19989;-48
2022/02/20 12:53:35;;;;;;;;;;;;;;;;;;4997949;28;19968;-49
2022/02/20 12:56:00;;;;;;;;;;;;;;;;;;4994595;28;20329;-52
2022/02/20 12:58:25;;;;;;;;;;;;;;;;;;4998173;28;19914;-49
2022/02/20 13:00:51;;;;;;;;;;;;;;;;;;4997914;28;20354;-51
2022/02/20 13:03:16;;;;;;;;;;;;;;;;;;4998735;28;19913;-51
2022/02/20 13:05:41;;;;;;;;;;;;;;;;;;5002167;28;19914;-53
2022/02/20 13:08:11;;;;;;;;;;;;;;;;;;4996707;28;20356;-49
2022/02/20 13:10:36;;;;;;;;;;;;;;;;;;4995991;28;20381;-51
2022/02/20 13:13:02;;;;;;;;;;;;;;;;;;4999324;28;19937;-52
2022/02/20 13:15:27;;;;;;;;;;;;;;;;;;4996353;28;19941;-52
2022/02/20 13:17:53;;;;;;;;;;;;;;;;;;4995045;28;19967;-49
2022/02/20 13:20:18;;;;;;;;;;;;;;;;;;4997131;28;20007;-51
2022/02/20 13:22:43;;;;;;;;;;;;;;;;;;4997527;28;19918;-48
2022/02/20 13:25:08;;;;;;;;;;;;;;;;;;4997281;28;20289;-52
2022/02/20 13:27:33;;;;;;;;;;;;;;;;;;4999993;28;19963;-52
2022/02/20 13:29:58;;;;;;;;;;;;;;;;;;5000524;28;19937;-51
2022/02/20 13:32:23;;;;;;;;;;;;;;;;;;4998310;28;20497;-54
2022/02/20 13:34:49;;;;;;;;;;;;;;;;;;4998206;28;19976;-49
2022/02/20 13:37:14;;;;;;;;;;;;;;;;;;4995952;28;19909;-52
2022/02/20 13:39:40;;;;;;;;;;;;;;;;;;4997263;28;20008;-51
2022/02/20 13:42:06;;;;;;;;;;;;;;;;;;4999195;28;19914;-51
2022/02/20 13:44:34;;;;;;;;;;;;;;;;;;4995973;28;19945;-51
2022/02/20 13:46:59;;;;;;;;;;;;;;;;;;4996412;28;20472;-52
2022/02/20 13:49:24;;;;;;;;;;;;;;;;;;4993623;28;19929;-50
2022/02/20 13:51:49;;;;;;;;;;;;;;;;;;4998075;28;20278;-53
2022/02/20 13:54:14;;;;;;;;;;;;;;;;;;4995332;28;19914;-52
2022/02/20 13:56:39;;;;;;;;;;;;;;;;;;4992509;28;19910;-50
2022/02/20 13:59:07;;;;;;;;;;;;;;;;;;4990449;28;20144;-52
2022/02/20 14:01:32;;;;;;;;;;;;;;;;;;4997217;28;19913;-49
2022/02/20 14:03:57;;;;;;;;;;;;;;;;;;5011363;28;20508;-49
2022/02/20 14:06:22;;;;;;;;;;;;;;;;;;4997447;28;19956;-48
2022/02/20 14:08:47;;;;;;;;;;;;;;;;;;4993955;28;19913;-48
2022/02/20 14:11:13;;;;;;;;;;;;;;;;;;4996571;28;20067;-49
2022/02/20 14:13:38;;;;;;;;;;;;;;;;;;4995925;28;19918;-51
2022/02/20 14:16:03;;;;;;;;;;;;;;;;;;4994749;28;19910;-50
2022/02/20 14:18:28;;;;;;;;;;;;;;;;;;4995765;28;19920;-50
2022/02/20 14:20:55;;;;;;;;;;;;;;;;;;4996495;28;20525;-47
2022/02/20 14:23:20;;;;;;;;;;;;;;;;;;4995291;28;19913;-52
2022/02/20 14:25:45;;;;;;;;;;;;;;;;;;4994274;28;19968;-53
2022/02/20 14:28:10;;;;;;;;;;;;;;;;;;4994603;28;20004;-48
2022/02/20 14:30:37;;;;;;;;;;;;;;;;;;4997127;28;20228;-50
2022/02/20 14:33:02;;;;;;;;;;;;;;;;;;4997337;28;20006;-52
2022/02/20 14:35:27;;;;;;;;;;;;;;;;;;4996908;28;20005;-51
2022/02/20 14:37:53;;;;;;;;;;;;;;;;;;4994180;28;19910;-49
2022/02/20 14:40:18;;;;;;;;;;;;;;;;;;4994511;28;19914;-51
2022/02/20 14:42:43;;;;;;;;;;;;;;;;;;4997442;28;20500;-54
2022/02/20 14:45:08;;;;;;;;;;;;;;;;;;4994964;28;19910;-51
2022/02/20 14:47:33;;;;;;;;;;;;;;;;;;4994968;28;20360;-49
2022/02/20 14:49:58;;;;;;;;;;;;;;;;;;4996323;28;20023;-54
2022/02/20 14:52:23;;;;;;;;;;;;;;;;;;4994873;28;19963;-48
2022/02/20 14:54:49;;;;;;;;;;;;;;;;;;4994586;28;19929;-49
2022/02/20 14:57:15;;;;;;;;;;;;;;;;;;4994606;28;19909;-50
2022/02/20 14:59:41;;;;;;;;;;;;;;;;;;4996803;28;19914;-53
2022/02/20 15:02:06;;;;;;;;;;;;;;;;;;4996405;28;19925;-49
2022/02/20 15:04:32;;;;;;;;;;;;;;;;;;4996599;28;20007;-50
2022/02/20 15:06:57;;;;;;;;;;;;;;;;;;4996016;28;19997;-55
2022/02/20 15:09:22;;;;;;;;;;;;;;;;;;4995538;28;19960;-52
2022/02/20 15:11:48;;;;;;;;;;;;;;;;;;4996501;28;19909;-52
2022/02/20 15:14:14;;;;;;;;;;;;;;;;;;4996143;28;19921;-51
2022/02/20 15:16:39;;;;;;;;;;;;;;;;;;4996905;28;19917;-48
2022/02/20 15:19:06;;;;;;;;;;;;;;;;;;4993087;28;19961;-52
2022/02/20 15:21:32;;;;;;;;;;;;;;;;;;4997278;28;20429;-54
2022/02/20 15:23:57;;;;;;;;;;;;;;;;;;4996691;28;19943;-53
2022/02/20 15:26:22;;;;;;;;;;;;;;;;;;4995503;28;19918;-52
2022/02/20 15:28:48;;;;;;;;;;;;;;;;;;4995475;28;19921;-52
2022/02/20 15:31:14;;;;;;;;;;;;;;;;;;4998406;28;20356;-51
2022/02/20 15:33:39;;;;;;;;;;;;;;;;;;5001304;28;19913;-51
2022/02/20 15:36:04;;;;;;;;;;;;;;;;;;4998568;28;19910;-49
2022/02/20 15:38:29;;;;;;;;;;;;;;;;;;5000625;28;19913;-49
2022/02/20 15:40:56;;;;;;;;;;;;;;;;;;5001172;28;19952;-49
2022/02/20 15:43:22;;;;;;;;;;;;;;;;;;5000228;28;19983;-54
2022/02/20 15:45:47;;;;;;;;;;;;;;;;;;4999301;28;19936;-53
2022/02/20 15:48:17;;;;;;;;;;;;;;;;;;5001888;28;19960;-51
2022/02/20 15:50:42;;;;;;;;;;;;;;;;;;5002033;28;19925;-55
2022/02/20 15:53:07;;;;;;;;;;;;;;;;;;4996979;28;20020;-54
2022/02/20 15:55:32;;;;;;;;;;;;;;;;;;4997970;28;19914;-53
2022/02/20 15:57:58;;;;;;;;;;;;;;;;;;4996610;28;20332;-47
2022/02/20 16:00:23;;;;;;;;;;;;;;;;;;5000254;28;19915;-51
2022/02/20 16:02:48;;;;;;;;;;;;;;;;;;4998030;28;20009;-51
2022/02/20 16:05:13;;;;;;;;;;;;;;;;;;4995954;28;19963;-50
2022/02/20 16:07:39;;;;;;;;;;;;;;;;;;4999198;28;20013;-50
2022/02/20 16:10:05;;;;;;;;;;;;;;;;;;4998074;28;19972;-53
2022/02/20 16:12:30;;;;;;;;;;;;;;;;;;4998475;28;19933;-49
2022/02/20 16:14:55;;;;;;;;;;;;;;;;;;4998733;28;19921;-52
2022/02/20 16:17:22;;;;;;;;;;;;;;;;;;4997488;28;20408;-49
2022/02/20 16:19:47;;;;;;;;;;;;;;;;;;5001252;28;19964;-49
2022/02/20 16:22:12;;;;;;;;;;;;;;;;;;4997283;28;20401;-50
2022/02/20 16:24:37;;;;;;;;;;;;;;;;;;4997117;28;20332;-49
2022/02/20 16:27:02;;;;;;;;;;;;;;;;;;4998651;28;20138;-51
2022/02/20 16:29:28;;;;;;;;;;;;;;;;;;4998081;28;19943;-51
2022/02/20 16:31:53;;;;;;;;;;;;;;;;;;4999629;28;20019;-45